sensor_id;sensor_type;location;lat;lon;timestamp;temperature;humidity
22456;DHT22;11395;53.204;6.502;2023-01-10T00:00:52;22.80;61.70
22456;DHT22;11395;53.204;6.502;2023-01-10T00:03:18;22.70;61.70
22456;DHT22;11395;53.204;6.502;2023-01-10T00:05:45;22.70;61.70
22456;DHT22;11395;53.204;6.502;2023-01-10T00:08:15;22.70;61.60
22456;DHT22;11395;53.204;6.502;2023-01-10T00:10:41;22.60;61.70
22456;DHT22;11395;53.204;6.502;2023-01-10T00:13:13;22.60;61.70
22456;DHT22;11395;53.204;6.502;2023-01-10T00:15:50;22.50;61.70
22456;DHT22;11395;53.204;6.502;2023-01-10T00:18:17;22.50;61.80
22456;DHT22;11395;53.204;6.502;2023-01-10T00:20:44;22.40;62.00
22456;DHT22;11395;53.204;6.502;2023-01-10T00:23:11;22.40;62.00
22456;DHT22;11395;53.204;6.502;2023-01-10T00:25:38;22.30;62.80
22456;DHT22;11395;53.204;6.502;2023-01-10T00:28:05;22.30;62.20
22456;DHT22;11395;53.204;6.502;2023-01-10T00:30:48;22.20;62.30
22456;DHT22;11395;53.204;6.502;2023-01-10T00:33:19;22.10;62.30
22456;DHT22;11395;53.204;6.502;2023-01-10T00:35:47;22.10;62.40
22456;DHT22;11395;53.204;6.502;2023-01-10T00:38:13;22.00;62.50
22456;DHT22;11395;53.204;6.502;2023-01-10T00:40:40;22.00;62.60
22456;DHT22;11395;53.204;6.502;2023-01-10T00:43:08;21.90;62.80
22456;DHT22;11395;53.204;6.502;2023-01-10T00:45:53;21.90;62.90
22456;DHT22;11395;53.204;6.502;2023-01-10T00:48:19;21.90;63.00
22456;DHT22;11395;53.204;6.502;2023-01-10T00:50:45;21.80;63.00
22456;DHT22;11395;53.204;6.502;2023-01-10T00:53:12;21.80;63.10
22456;DHT22;11395;53.204;6.502;2023-01-10T00:55:38;21.70;63.10
22456;DHT22;11395;53.204;6.502;2023-01-10T00:58:05;21.80;63.00
22456;DHT22;11395;53.204;6.502;2023-01-10T01:00:33;21.70;63.00
22456;DHT22;11395;53.204;6.502;2023-01-10T01:02:59;21.80;62.90
22456;DHT22;11395;53.204;6.502;2023-01-10T01:05:25;21.70;62.90
22456;DHT22;11395;53.204;6.502;2023-01-10T01:07:52;21.70;62.80
22456;DHT22;11395;53.204;6.502;2023-01-10T01:10:18;21.70;62.80
22456;DHT22;11395;53.204;6.502;2023-01-10T01:12:59;21.70;62.90
22456;DHT22;11395;53.204;6.502;2023-01-10T01:15:26;21.60;62.90
22456;DHT22;11395;53.204;6.502;2023-01-10T01:17:52;21.60;62.90
22456;DHT22;11395;53.204;6.502;2023-01-10T01:20:19;21.60;62.80
22456;DHT22;11395;53.204;6.502;2023-01-10T01:22:47;21.60;62.80
22456;DHT22;11395;53.204;6.502;2023-01-10T01:25:13;21.60;62.70
22456;DHT22;11395;53.204;6.502;2023-01-10T01:27:39;21.50;62.70
22456;DHT22;11395;53.204;6.502;2023-01-10T01:30:07;21.50;62.70
22456;DHT22;11395;53.204;6.502;2023-01-10T01:32:34;21.50;62.70
22456;DHT22;11395;53.204;6.502;2023-01-10T01:35:00;21.50;62.90
22456;DHT22;11395;53.204;6.502;2023-01-10T01:37:26;21.50;62.90
22456;DHT22;11395;53.204;6.502;2023-01-10T01:39:52;21.40;63.00
22456;DHT22;11395;53.204;6.502;2023-01-10T01:42:39;21.40;63.00
22456;DHT22;11395;53.204;6.502;2023-01-10T01:53:45;21.20;64.00
22456;DHT22;11395;53.204;6.502;2023-01-10T01:56:20;21.20;63.20
22456;DHT22;11395;53.204;6.502;2023-01-10T01:58:55;21.10;63.30
22456;DHT22;11395;53.204;6.502;2023-01-10T02:01:22;21.10;63.30
22456;DHT22;11395;53.204;6.502;2023-01-10T02:04:00;21.10;63.40
22456;DHT22;11395;53.204;6.502;2023-01-10T02:06:28;21.00;63.30
22456;DHT22;11395;53.204;6.502;2023-01-10T02:09:05;21.00;63.50
22456;DHT22;11395;53.204;6.502;2023-01-10T02:11:33;20.90;63.60
22456;DHT22;11395;53.204;6.502;2023-01-10T02:14:00;20.90;63.70
22456;DHT22;11395;53.204;6.502;2023-01-10T02:16:28;20.90;63.70
22456;DHT22;11395;53.204;6.502;2023-01-10T02:18:55;20.80;63.70
22456;DHT22;11395;53.204;6.502;2023-01-10T02:33:29;20.60;64.10
22456;DHT22;11395;53.204;6.502;2023-01-10T02:36:24;20.60;64.00
22456;DHT22;11395;53.204;6.502;2023-01-10T02:39:32;20.60;64.10
22456;DHT22;11395;53.204;6.502;2023-01-10T02:42:12;20.50;64.10
22456;DHT22;11395;53.204;6.502;2023-01-10T02:45:01;20.50;64.20
22456;DHT22;11395;53.204;6.502;2023-01-10T02:47:36;20.40;64.10
22456;DHT22;11395;53.204;6.502;2023-01-10T02:50:28;20.40;64.30
22456;DHT22;11395;53.204;6.502;2023-01-10T02:53:01;20.40;64.50
22456;DHT22;11395;53.204;6.502;2023-01-10T02:56:01;20.30;64.50
22456;DHT22;11395;53.204;6.502;2023-01-10T03:01:23;20.30;64.60
22456;DHT22;11395;53.204;6.502;2023-01-10T03:04:04;20.20;64.70
22456;DHT22;11395;53.204;6.502;2023-01-10T03:06:42;20.20;64.80
22456;DHT22;11395;53.204;6.502;2023-01-10T03:09:16;20.20;64.90
22456;DHT22;11395;53.204;6.502;2023-01-10T03:11:46;20.10;65.00
22456;DHT22;11395;53.204;6.502;2023-01-10T03:14:21;20.10;64.90
22456;DHT22;11395;53.204;6.502;2023-01-10T03:16:56;20.10;65.00
22456;DHT22;11395;53.204;6.502;2023-01-10T03:19:27;20.00;65.10
22456;DHT22;11395;53.204;6.502;2023-01-10T03:21:56;20.00;65.20
22456;DHT22;11395;53.204;6.502;2023-01-10T03:24:33;19.90;65.00
22456;DHT22;11395;53.204;6.502;2023-01-10T03:27:43;20.00;65.00
22456;DHT22;11395;53.204;6.502;2023-01-10T03:30:06;19.90;65.10
22456;DHT22;11395;53.204;6.502;2023-01-10T03:32:38;19.90;65.00
22456;DHT22;11395;53.204;6.502;2023-01-10T03:35:05;19.90;65.00
22456;DHT22;11395;53.204;6.502;2023-01-10T03:37:36;19.60;64.80
22456;DHT22;11395;53.204;6.502;2023-01-10T03:42:56;19.90;65.00
22456;DHT22;11395;53.204;6.502;2023-01-10T03:45:52;19.80;64.90
22456;DHT22;11395;53.204;6.502;2023-01-10T03:48:22;19.80;65.00
22456;DHT22;11395;53.204;6.502;2023-01-10T03:50:50;19.80;65.70
22456;DHT22;11395;53.204;6.502;2023-01-10T03:53:17;19.80;67.20
22456;DHT22;11395;53.204;6.502;2023-01-10T03:55:44;19.70;68.80
22456;DHT22;11395;53.204;6.502;2023-01-10T03:58:10;19.70;71.00
22456;DHT22;11395;53.204;6.502;2023-01-10T04:00:37;19.70;72.50
22456;DHT22;11395;53.204;6.502;2023-01-10T04:03:04;19.70;72.10
22456;DHT22;11395;53.204;6.502;2023-01-10T04:05:30;19.60;73.90
22456;DHT22;11395;53.204;6.502;2023-01-10T04:07:57;19.60;72.70
22456;DHT22;11395;53.204;6.502;2023-01-10T04:10:23;19.60;72.70
22456;DHT22;11395;53.204;6.502;2023-01-10T04:12:52;19.60;71.40
22456;DHT22;11395;53.204;6.502;2023-01-10T04:15:18;19.60;72.20
22456;DHT22;11395;53.204;6.502;2023-01-10T04:17:47;19.60;72.10
22456;DHT22;11395;53.204;6.502;2023-01-10T04:20:13;19.60;72.70
22456;DHT22;11395;53.204;6.502;2023-01-10T04:22:40;19.70;72.10
22456;DHT22;11395;53.204;6.502;2023-01-10T04:25:06;19.70;73.60
22456;DHT22;11395;53.204;6.502;2023-01-10T04:27:34;19.90;64.10
22456;DHT22;11395;53.204;6.502;2023-01-10T04:30:01;19.90;64.80
22456;DHT22;11395;53.204;6.502;2023-01-10T04:32:27;20.00;64.70
22456;DHT22;11395;53.204;6.502;2023-01-10T04:34:53;20.00;64.70
22456;DHT22;11395;53.204;6.502;2023-01-10T04:37:19;20.20;64.60
22456;DHT22;11395;53.204;6.502;2023-01-10T04:39:46;20.30;64.40
22456;DHT22;11395;53.204;6.502;2023-01-10T04:42:12;20.40;64.30
22456;DHT22;11395;53.204;6.502;2023-01-10T04:44:39;20.50;64.10
22456;DHT22;11395;53.204;6.502;2023-01-10T04:47:05;20.60;64.00
22456;DHT22;11395;53.204;6.502;2023-01-10T04:49:31;20.60;63.70
22456;DHT22;11395;53.204;6.502;2023-01-10T04:51:57;20.80;63.60
22456;DHT22;11395;53.204;6.502;2023-01-10T04:54:23;20.80;63.40
22456;DHT22;11395;53.204;6.502;2023-01-10T04:56:50;20.80;63.30
22456;DHT22;11395;53.204;6.502;2023-01-10T04:59:16;20.90;63.20
22456;DHT22;11395;53.204;6.502;2023-01-10T05:01:43;21.00;63.00
22456;DHT22;11395;53.204;6.502;2023-01-10T05:04:09;21.00;62.90
22456;DHT22;11395;53.204;6.502;2023-01-10T05:06:35;21.10;62.90
22456;DHT22;11395;53.204;6.502;2023-01-10T05:09:06;21.00;62.70
22456;DHT22;11395;53.204;6.502;2023-01-10T05:11:32;21.10;62.70
22456;DHT22;11395;53.204;6.502;2023-01-10T05:13:58;21.10;62.60
22456;DHT22;11395;53.204;6.502;2023-01-10T05:16:24;21.20;62.40
22456;DHT22;11395;53.204;6.502;2023-01-10T05:18:51;21.30;62.50
22456;DHT22;11395;53.204;6.502;2023-01-10T05:21:17;21.30;62.20
22456;DHT22;11395;53.204;6.502;2023-01-10T05:23:43;21.40;62.00
22456;DHT22;11395;53.204;6.502;2023-01-10T05:26:15;21.50;61.80
22456;DHT22;11395;53.204;6.502;2023-01-10T05:28:42;21.50;61.60
22456;DHT22;11395;53.204;6.502;2023-01-10T05:31:11;21.70;61.60
22456;DHT22;11395;53.204;6.502;2023-01-10T05:33:38;21.80;61.30
22456;DHT22;11395;53.204;6.502;2023-01-10T05:36:05;22.00;61.00
22456;DHT22;11395;53.204;6.502;2023-01-10T05:38:32;22.20;60.90
22456;DHT22;11395;53.204;6.502;2023-01-10T05:40:59;22.30;60.60
22456;DHT22;11395;53.204;6.502;2023-01-10T05:43:26;22.40;60.20
22456;DHT22;11395;53.204;6.502;2023-01-10T05:45:56;22.60;60.10
22456;DHT22;11395;53.204;6.502;2023-01-10T05:48:22;22.80;59.70
22456;DHT22;11395;53.204;6.502;2023-01-10T05:50:49;22.90;59.60
22456;DHT22;11395;53.204;6.502;2023-01-10T05:53:17;23.10;59.20
22456;DHT22;11395;53.204;6.502;2023-01-10T05:55:43;23.30;58.90
22456;DHT22;11395;53.204;6.502;2023-01-10T05:58:09;23.40;58.90
22456;DHT22;11395;53.204;6.502;2023-01-10T06:00:36;23.50;59.10
22456;DHT22;11395;53.204;6.502;2023-01-10T06:03:04;23.60;58.60
22456;DHT22;11395;53.204;6.502;2023-01-10T06:05:30;23.70;59.10
22456;DHT22;11395;53.204;6.502;2023-01-10T06:07:57;23.80;58.60
22456;DHT22;11395;53.204;6.502;2023-01-10T06:10:23;23.80;58.90
22456;DHT22;11395;53.204;6.502;2023-01-10T06:12:49;23.90;58.90
22456;DHT22;11395;53.204;6.502;2023-01-10T06:15:16;23.90;58.90
22456;DHT22;11395;53.204;6.502;2023-01-10T06:17:42;23.90;58.70
22456;DHT22;11395;53.204;6.502;2023-01-10T06:20:13;23.90;58.30
22456;DHT22;11395;53.204;6.502;2023-01-10T06:22:40;24.00;58.50
22456;DHT22;11395;53.204;6.502;2023-01-10T06:25:09;24.00;58.70
22456;DHT22;11395;53.204;6.502;2023-01-10T06:27:39;24.00;58.50
22456;DHT22;11395;53.204;6.502;2023-01-10T06:30:06;24.00;58.50
22456;DHT22;11395;53.204;6.502;2023-01-10T06:32:32;24.00;58.20
22456;DHT22;11395;53.204;6.502;2023-01-10T06:34:59;23.90;58.40
22456;DHT22;11395;53.204;6.502;2023-01-10T06:37:25;23.90;58.30
22456;DHT22;11395;53.204;6.502;2023-01-10T06:39:51;23.90;58.20
22456;DHT22;11395;53.204;6.502;2023-01-10T06:42:24;23.80;58.30
22456;DHT22;11395;53.204;6.502;2023-01-10T06:44:50;23.70;58.20
22456;DHT22;11395;53.204;6.502;2023-01-10T06:47:16;23.80;58.40
22456;DHT22;11395;53.204;6.502;2023-01-10T06:49:42;23.70;58.30
22456;DHT22;11395;53.204;6.502;2023-01-10T06:52:09;23.70;58.30
22456;DHT22;11395;53.204;6.502;2023-01-10T06:54:35;23.60;58.40
22456;DHT22;11395;53.204;6.502;2023-01-10T06:57:01;23.60;59.10
22456;DHT22;11395;53.204;6.502;2023-01-10T06:59:27;23.60;58.00
22456;DHT22;11395;53.204;6.502;2023-01-10T07:01:54;23.60;58.00
22456;DHT22;11395;53.204;6.502;2023-01-10T07:04:20;23.70;58.20
22456;DHT22;11395;53.204;6.502;2023-01-10T07:06:46;23.70;58.10
22456;DHT22;11395;53.204;6.502;2023-01-10T07:09:13;23.80;58.10
22456;DHT22;11395;53.204;6.502;2023-01-10T07:11:39;23.90;58.00
22456;DHT22;11395;53.204;6.502;2023-01-10T07:14:05;24.00;58.10
22456;DHT22;11395;53.204;6.502;2023-01-10T07:16:31;24.10;57.90
22456;DHT22;11395;53.204;6.502;2023-01-10T07:18:58;24.10;58.00
22456;DHT22;11395;53.204;6.502;2023-01-10T07:21:25;24.20;57.90
22456;DHT22;11395;53.204;6.502;2023-01-10T07:23:51;24.20;57.80
22456;DHT22;11395;53.204;6.502;2023-01-10T07:26:18;24.20;57.70
22456;DHT22;11395;53.204;6.502;2023-01-10T07:28:48;24.30;57.50
22456;DHT22;11395;53.204;6.502;2023-01-10T07:31:19;24.20;57.60
22456;DHT22;11395;53.204;6.502;2023-01-10T07:33:45;24.20;57.40
22456;DHT22;11395;53.204;6.502;2023-01-10T07:36:12;24.20;57.30
22456;DHT22;11395;53.204;6.502;2023-01-10T07:38:38;24.20;57.30
22456;DHT22;11395;53.204;6.502;2023-01-10T07:41:04;24.30;57.20
22456;DHT22;11395;53.204;6.502;2023-01-10T07:43:31;24.20;57.90
22456;DHT22;11395;53.204;6.502;2023-01-10T07:46:03;24.20;57.10
22456;DHT22;11395;53.204;6.502;2023-01-10T07:48:30;24.20;57.20
22456;DHT22;11395;53.204;6.502;2023-01-10T07:50:58;24.10;56.90
22456;DHT22;11395;53.204;6.502;2023-01-10T07:53:25;24.00;57.00
22456;DHT22;11395;53.204;6.502;2023-01-10T07:55:52;23.90;57.10
22456;DHT22;11395;53.204;6.502;2023-01-10T07:58:18;23.90;57.10
22456;DHT22;11395;53.204;6.502;2023-01-10T08:00:45;23.80;57.00
22456;DHT22;11395;53.204;6.502;2023-01-10T08:03:12;23.70;57.50
22456;DHT22;11395;53.204;6.502;2023-01-10T08:05:38;23.70;57.50
22456;DHT22;11395;53.204;6.502;2023-01-10T08:08:09;23.70;57.50
22456;DHT22;11395;53.204;6.502;2023-01-10T08:10:36;23.60;57.70
22456;DHT22;11395;53.204;6.502;2023-01-10T08:13:03;23.60;57.70
22456;DHT22;11395;53.204;6.502;2023-01-10T08:15:30;23.50;57.70
22456;DHT22;11395;53.204;6.502;2023-01-10T08:18:02;23.50;57.90
22456;DHT22;11395;53.204;6.502;2023-01-10T08:20:28;23.50;57.90
22456;DHT22;11395;53.204;6.502;2023-01-10T08:22:58;23.60;58.10
22456;DHT22;11395;53.204;6.502;2023-01-10T08:25:25;23.60;58.10
22456;DHT22;11395;53.204;6.502;2023-01-10T08:27:51;23.70;58.20
22456;DHT22;11395;53.204;6.502;2023-01-10T08:30:18;23.70;58.20
22456;DHT22;11395;53.204;6.502;2023-01-10T08:32:45;23.70;58.10
22456;DHT22;11395;53.204;6.502;2023-01-10T08:35:11;23.70;58.00
22456;DHT22;11395;53.204;6.502;2023-01-10T08:37:37;23.80;58.10
22456;DHT22;11395;53.204;6.502;2023-01-10T08:40:04;23.80;58.00
22456;DHT22;11395;53.204;6.502;2023-01-10T08:42:30;23.80;58.00
22456;DHT22;11395;53.204;6.502;2023-01-10T08:44:57;23.80;58.10
22456;DHT22;11395;53.204;6.502;2023-01-10T08:47:23;23.80;58.10
22456;DHT22;11395;53.204;6.502;2023-01-10T08:49:49;23.70;58.00
22456;DHT22;11395;53.204;6.502;2023-01-10T08:52:15;23.80;58.10
22456;DHT22;11395;53.204;6.502;2023-01-10T08:54:42;23.70;58.20
22456;DHT22;11395;53.204;6.502;2023-01-10T08:57:08;23.70;58.20
22456;DHT22;11395;53.204;6.502;2023-01-10T08:59:35;23.70;58.10
22456;DHT22;11395;53.204;6.502;2023-01-10T09:02:01;23.70;58.20
22456;DHT22;11395;53.204;6.502;2023-01-10T09:04:30;23.70;58.20
22456;DHT22;11395;53.204;6.502;2023-01-10T09:06:56;23.60;58.40
22456;DHT22;11395;53.204;6.502;2023-01-10T09:09:22;23.60;58.40
22456;DHT22;11395;53.204;6.502;2023-01-10T09:11:48;23.60;58.70
22456;DHT22;11395;53.204;6.502;2023-01-10T09:14:15;23.60;58.70
22456;DHT22;11395;53.204;6.502;2023-01-10T09:16:41;23.50;58.70
22456;DHT22;11395;53.204;6.502;2023-01-10T09:19:07;23.50;58.80
22456;DHT22;11395;53.204;6.502;2023-01-10T09:21:33;23.60;58.90
22456;DHT22;11395;53.204;6.502;2023-01-10T09:24:00;23.60;58.90
22456;DHT22;11395;53.204;6.502;2023-01-10T09:26:26;23.60;58.90
22456;DHT22;11395;53.204;6.502;2023-01-10T09:28:52;23.70;59.00
22456;DHT22;11395;53.204;6.502;2023-01-10T09:31:18;23.70;58.80
22456;DHT22;11395;53.204;6.502;2023-01-10T09:33:44;23.80;58.70
22456;DHT22;11395;53.204;6.502;2023-01-10T09:36:11;23.80;58.60
22456;DHT22;11395;53.204;6.502;2023-01-10T09:38:40;23.90;58.50
22456;DHT22;11395;53.204;6.502;2023-01-10T09:43:57;23.90;58.60
22456;DHT22;11395;53.204;6.502;2023-01-10T09:49:24;23.90;58.40
22456;DHT22;11395;53.204;6.502;2023-01-10T09:51:55;23.90;58.30
22456;DHT22;11395;53.204;6.502;2023-01-10T09:54:31;23.90;58.30
22456;DHT22;11395;53.204;6.502;2023-01-10T09:56:59;23.90;58.30
22456;DHT22;11395;53.204;6.502;2023-01-10T09:59:35;23.80;58.20
22456;DHT22;11395;53.204;6.502;2023-01-10T10:02:34;23.80;58.10
22456;DHT22;11395;53.204;6.502;2023-01-10T10:07:57;23.70;58.20
22456;DHT22;11395;53.204;6.502;2023-01-10T10:10:36;23.60;58.30
22456;DHT22;11395;53.204;6.502;2023-01-10T10:13:24;23.60;58.30
22456;DHT22;11395;53.204;6.502;2023-01-10T10:24:22;23.70;58.50
22456;DHT22;11395;53.204;6.502;2023-01-10T10:26:58;23.70;58.40
22456;DHT22;11395;53.204;6.502;2023-01-10T10:34:47;23.90;58.40
22456;DHT22;11395;53.204;6.502;2023-01-10T10:37:29;24.00;58.30
22456;DHT22;11395;53.204;6.502;2023-01-10T10:40:27;24.10;58.10
22456;DHT22;11395;53.204;6.502;2023-01-10T10:42:56;24.10;58.00
22456;DHT22;11395;53.204;6.502;2023-01-10T10:45:44;24.10;57.70
22456;DHT22;11395;53.204;6.502;2023-01-10T10:48:19;24.20;57.80
22456;DHT22;11395;53.204;6.502;2023-01-10T10:53:35;24.20;57.70
22456;DHT22;11395;53.204;6.502;2023-01-10T10:56:04;24.20;57.70
22456;DHT22;11395;53.204;6.502;2023-01-10T10:58:31;24.40;57.80
22456;DHT22;11395;53.204;6.502;2023-01-10T11:01:00;24.10;57.70
22456;DHT22;11395;53.204;6.502;2023-01-10T11:03:37;24.10;57.70
22456;DHT22;11395;53.204;6.502;2023-01-10T11:06:06;24.10;57.70
22456;DHT22;11395;53.204;6.502;2023-01-10T11:08:38;24.10;57.80
22456;DHT22;11395;53.204;6.502;2023-01-10T11:11:23;24.10;57.80
22456;DHT22;11395;53.204;6.502;2023-01-10T11:13:54;24.10;57.80
22456;DHT22;11395;53.204;6.502;2023-01-10T11:16:35;24.00;57.80
22456;DHT22;11395;53.204;6.502;2023-01-10T11:21:52;24.00;57.80
22456;DHT22;11395;53.204;6.502;2023-01-10T11:24:25;23.90;57.70
22456;DHT22;11395;53.204;6.502;2023-01-10T11:26:52;23.90;57.70
22456;DHT22;11395;53.204;6.502;2023-01-10T11:32:11;23.80;57.70
22456;DHT22;11395;53.204;6.502;2023-01-10T11:34:51;23.80;57.80
22456;DHT22;11395;53.204;6.502;2023-01-10T11:37:32;23.70;57.80
22456;DHT22;11395;53.204;6.502;2023-01-10T11:40:34;23.70;57.90
22456;DHT22;11395;53.204;6.502;2023-01-10T11:43:24;23.60;58.00
22456;DHT22;11395;53.204;6.502;2023-01-10T11:51:28;23.60;58.60
22456;DHT22;11395;53.204;6.502;2023-01-10T11:54:09;23.70;58.70
22456;DHT22;11395;53.204;6.502;2023-01-10T11:56:38;23.70;58.60
22456;DHT22;11395;53.204;6.502;2023-01-10T11:59:16;23.80;58.80
22456;DHT22;11395;53.204;6.502;2023-01-10T12:04:14;24.00;58.60
22456;DHT22;11395;53.204;6.502;2023-01-10T12:06:47;24.00;58.50
22456;DHT22;11395;53.204;6.502;2023-01-10T12:09:34;24.10;58.50
22456;DHT22;11395;53.204;6.502;2023-01-10T12:12:02;24.10;58.30
22456;DHT22;11395;53.204;6.502;2023-01-10T12:14:29;24.20;58.20
22456;DHT22;11395;53.204;6.502;2023-01-10T12:17:00;24.20;58.10
22456;DHT22;11395;53.204;6.502;2023-01-10T12:19:28;24.20;58.00
22456;DHT22;11395;53.204;6.502;2023-01-10T12:21:58;24.20;58.00
22456;DHT22;11395;53.204;6.502;2023-01-10T12:24:34;24.20;58.00
22456;DHT22;11395;53.204;6.502;2023-01-10T12:27:02;24.10;58.00
22456;DHT22;11395;53.204;6.502;2023-01-10T12:29:34;24.10;57.90
22456;DHT22;11395;53.204;6.502;2023-01-10T12:32:04;24.10;58.00
22456;DHT22;11395;53.204;6.502;2023-01-10T12:34:40;24.10;57.90
22456;DHT22;11395;53.204;6.502;2023-01-10T12:37:18;24.10;57.90
22456;DHT22;11395;53.204;6.502;2023-01-10T12:39:55;24.10;57.90
22456;DHT22;11395;53.204;6.502;2023-01-10T12:45:32;24.00;57.80
22456;DHT22;11395;53.204;6.502;2023-01-10T12:50:40;23.90;57.80
22456;DHT22;11395;53.204;6.502;2023-01-10T12:55:43;23.80;57.80
22456;DHT22;11395;53.204;6.502;2023-01-10T12:59:03;23.80;57.90
22456;DHT22;11395;53.204;6.502;2023-01-10T13:01:29;23.70;57.90
22456;DHT22;11395;53.204;6.502;2023-01-10T13:04:22;23.70;58.00
22456;DHT22;11395;53.204;6.502;2023-01-10T13:06:48;23.60;58.00
22456;DHT22;11395;53.204;6.502;2023-01-10T13:09:34;23.60;58.10
22456;DHT22;11395;53.204;6.502;2023-01-10T13:12:06;23.60;58.30
22456;DHT22;11395;53.204;6.502;2023-01-10T13:14:44;23.60;58.40
22456;DHT22;11395;53.204;6.502;2023-01-10T13:17:25;23.60;58.50
22456;DHT22;11395;53.204;6.502;2023-01-10T13:22:42;23.70;58.60
22456;DHT22;11395;53.204;6.502;2023-01-10T13:25:36;23.80;58.50
22456;DHT22;11395;53.204;6.502;2023-01-10T13:28:19;23.80;58.40
22456;DHT22;11395;53.204;6.502;2023-01-10T13:30:52;23.80;58.30
22456;DHT22;11395;53.204;6.502;2023-01-10T13:35:48;23.90;58.20
22456;DHT22;11395;53.204;6.502;2023-01-10T13:38:22;23.90;58.20
22456;DHT22;11395;53.204;6.502;2023-01-10T13:40:58;23.90;58.10
22456;DHT22;11395;53.204;6.502;2023-01-10T13:43:30;23.90;58.00
22456;DHT22;11395;53.204;6.502;2023-01-10T13:51:26;23.80;58.10
22456;DHT22;11395;53.204;6.502;2023-01-10T13:56:41;23.80;58.20
22456;DHT22;11395;53.204;6.502;2023-01-10T14:00:19;23.80;58.40
22456;DHT22;11395;53.204;6.502;2023-01-10T14:02:44;23.80;58.60
22456;DHT22;11395;53.204;6.502;2023-01-10T14:05:17;23.70;58.70
22456;DHT22;11395;53.204;6.502;2023-01-10T14:07:47;23.70;58.60
22456;DHT22;11395;53.204;6.502;2023-01-10T14:10:21;23.60;58.60
22456;DHT22;11395;53.204;6.502;2023-01-10T14:13:02;23.60;58.70
22456;DHT22;11395;53.204;6.502;2023-01-10T14:15:39;23.60;58.70
22456;DHT22;11395;53.204;6.502;2023-01-10T14:20:43;23.40;58.80
22456;DHT22;11395;53.204;6.502;2023-01-10T14:23:17;23.40;58.80
22456;DHT22;11395;53.204;6.502;2023-01-10T14:25:51;23.40;58.90
22456;DHT22;11395;53.204;6.502;2023-01-10T14:28:30;23.30;59.00
22456;DHT22;11395;53.204;6.502;2023-01-10T14:31:24;23.20;59.00
22456;DHT22;11395;53.204;6.502;2023-01-10T14:33:52;23.20;59.20
22456;DHT22;11395;53.204;6.502;2023-01-10T14:36:37;23.20;59.30
22456;DHT22;11395;53.204;6.502;2023-01-10T14:39:10;23.20;59.40
22456;DHT22;11395;53.204;6.502;2023-01-10T14:41:44;23.20;59.50
22456;DHT22;11395;53.204;6.502;2023-01-10T14:44:26;23.30;59.70
22456;DHT22;11395;53.204;6.502;2023-01-10T14:46:55;23.30;59.60
22456;DHT22;11395;53.204;6.502;2023-01-10T14:49:33;23.40;59.60
22456;DHT22;11395;53.204;6.502;2023-01-10T14:52:12;23.40;59.50
22456;DHT22;11395;53.204;6.502;2023-01-10T14:54:39;23.50;59.40
22456;DHT22;11395;53.204;6.502;2023-01-10T14:57:18;23.60;59.30
22456;DHT22;11395;53.204;6.502;2023-01-10T14:59:45;23.70;59.20
22456;DHT22;11395;53.204;6.502;2023-01-10T15:02:18;23.70;59.10
22456;DHT22;11395;53.204;6.502;2023-01-10T15:04:58;23.80;59.10
22456;DHT22;11395;53.204;6.502;2023-01-10T15:07:27;23.80;58.90
22456;DHT22;11395;53.204;6.502;2023-01-10T15:09:55;23.80;59.50
22456;DHT22;11395;53.204;6.502;2023-01-10T15:12:25;23.80;58.80
22456;DHT22;11395;53.204;6.502;2023-01-10T15:15:05;23.80;58.70
22456;DHT22;11395;53.204;6.502;2023-01-10T15:17:33;23.80;58.70
22456;DHT22;11395;53.204;6.502;2023-01-10T15:20:02;23.80;58.60
22456;DHT22;11395;53.204;6.502;2023-01-10T15:22:31;23.80;58.50
22456;DHT22;11395;53.204;6.502;2023-01-10T15:27:30;23.80;58.60
22456;DHT22;11395;53.204;6.502;2023-01-10T15:29:57;23.70;58.40
22456;DHT22;11395;53.204;6.502;2023-01-10T15:32:35;23.70;58.50
22456;DHT22;11395;53.204;6.502;2023-01-10T15:35:07;23.70;58.40
22456;DHT22;11395;53.204;6.502;2023-01-10T15:37:38;23.70;58.40
22456;DHT22;11395;53.204;6.502;2023-01-10T15:40:18;23.60;58.40
22456;DHT22;11395;53.204;6.502;2023-01-10T15:42:45;23.60;58.40
22456;DHT22;11395;53.204;6.502;2023-01-10T15:45:29;23.60;58.50
22456;DHT22;11395;53.204;6.502;2023-01-10T15:48:03;23.50;58.40
22456;DHT22;11395;53.204;6.502;2023-01-10T15:50:35;23.50;58.50
22456;DHT22;11395;53.204;6.502;2023-01-10T15:53:08;23.40;58.50
22456;DHT22;11395;53.204;6.502;2023-01-10T16:00:50;23.30;58.60
22456;DHT22;11395;53.204;6.502;2023-01-10T16:06:03;23.20;58.90
22456;DHT22;11395;53.204;6.502;2023-01-10T16:08:36;23.20;59.00
22456;DHT22;11395;53.204;6.502;2023-01-10T16:11:16;23.20;59.20
22456;DHT22;11395;53.204;6.502;2023-01-10T16:14:03;23.20;59.20
22456;DHT22;11395;53.204;6.502;2023-01-10T16:16:30;23.20;59.40
22456;DHT22;11395;53.204;6.502;2023-01-10T16:18:56;23.20;59.50
22456;DHT22;11395;53.204;6.502;2023-01-10T16:21:24;23.20;59.40
22456;DHT22;11395;53.204;6.502;2023-01-10T16:23:52;23.30;59.40
22456;DHT22;11395;53.204;6.502;2023-01-10T16:26:19;23.40;59.40
22456;DHT22;11395;53.204;6.502;2023-01-10T16:28:45;23.40;59.30
22456;DHT22;11395;53.204;6.502;2023-01-10T16:31:12;23.50;59.20
22456;DHT22;11395;53.204;6.502;2023-01-10T16:33:40;23.60;59.20
22456;DHT22;11395;53.204;6.502;2023-01-10T16:36:17;22.90;58.80
22456;DHT22;11395;53.204;6.502;2023-01-10T16:38:46;23.70;59.00
22456;DHT22;11395;53.204;6.502;2023-01-10T16:41:14;23.70;59.00
22456;DHT22;11395;53.204;6.502;2023-01-10T16:43:59;23.70;58.70
22456;DHT22;11395;53.204;6.502;2023-01-10T16:46:26;23.70;58.60
22456;DHT22;11395;53.204;6.502;2023-01-10T16:48:53;23.70;58.50
22456;DHT22;11395;53.204;6.502;2023-01-10T16:51:22;23.70;58.50
22456;DHT22;11395;53.204;6.502;2023-01-10T16:53:49;23.70;58.20
22456;DHT22;11395;53.204;6.502;2023-01-10T16:56:21;23.70;58.30
22456;DHT22;11395;53.204;6.502;2023-01-10T16:58:48;23.70;58.30
22456;DHT22;11395;53.204;6.502;2023-01-10T17:01:20;23.60;58.30
22456;DHT22;11395;53.204;6.502;2023-01-10T17:03:50;23.60;58.50
22456;DHT22;11395;53.204;6.502;2023-01-10T17:06:16;23.60;58.70
22456;DHT22;11395;53.204;6.502;2023-01-10T17:08:43;23.60;58.70
22456;DHT22;11395;53.204;6.502;2023-01-10T17:11:13;23.60;58.70
22456;DHT22;11395;53.204;6.502;2023-01-10T17:13:43;23.60;58.70
22456;DHT22;11395;53.204;6.502;2023-01-10T17:16:10;23.50;59.40
22456;DHT22;11395;53.204;6.502;2023-01-10T17:18:36;23.50;58.70
22456;DHT22;11395;53.204;6.502;2023-01-10T17:21:03;23.50;59.00
22456;DHT22;11395;53.204;6.502;2023-01-10T17:23:30;23.40;59.20
22456;DHT22;11395;53.204;6.502;2023-01-10T17:25:58;23.40;58.90
22456;DHT22;11395;53.204;6.502;2023-01-10T17:28:24;23.40;58.80
22456;DHT22;11395;53.204;6.502;2023-01-10T17:30:51;23.30;58.80
22456;DHT22;11395;53.204;6.502;2023-01-10T17:33:20;23.30;59.00